Time;durP1;ratioP1;P1;durP2;ratioP2;P2;SDS_P1;SDS_P2;PMS_P1;PMS_P2;Temp;Humidity;BMP_temperature;BMP_pressure;BME280_temperature;BME280_humidity;BME280_pressure;Samples;Min_cycle;Max_cycle;Signal;HPM_P1;HPM_P2
2024/03/14 00:01:26;;;;;;;2.13;1.92;;;;;;;9.86;100.00;101460.78;5090497;28;20433;-39
2024/03/14 00:03:54;;;;;;;3.03;2.40;;;;;;;9.85;100.00;101463.69;5090048;28;20475;-39
2024/03/14 00:06:20;;;;;;;2.75;2.15;;;;;;;9.84;100.00;101460.16;5080684;28;20486;-39
2024/03/14 00:08:45;;;;;;;3.13;2.13;;;;;;;9.79;100.00;101462.66;5076424;28;20024;-39
2024/03/14 00:11:11;;;;;;;2.97;2.47;;;;;;;9.79;100.00;101463.50;5076616;28;20028;-39
2024/03/14 00:13:36;;;;;;;2.90;2.33;;;;;;;9.78;100.00;101461.00;5076280;28;20079;-39
2024/03/14 00:16:03;;;;;;;3.25;2.45;;;;;;;9.75;100.00;101462.25;5075900;28;20028;-39
2024/03/14 00:18:29;;;;;;;5.78;2.25;;;;;;;9.76;100.00;101469.34;5076469;28;20032;-39
2024/03/14 00:20:54;;;;;;;4.15;2.42;;;;;;;9.76;100.00;101457.66;5076447;28;20354;-39
2024/03/14 00:23:23;;;;;;;3.50;3.17;;;;;;;9.74;100.00;101462.47;5076427;28;20435;-39
2024/03/14 00:25:51;;;;;;;3.33;2.65;;;;;;;9.74;100.00;101460.59;5075723;28;20271;-40
2024/03/14 00:28:16;;;;;;;3.47;2.65;;;;;;;9.74;100.00;101455.19;5076028;28;20357;-39
2024/03/14 00:30:41;;;;;;;4.03;3.00;;;;;;;9.72;100.00;101451.06;5075430;28;20022;-39
2024/03/14 00:33:07;;;;;;;4.80;3.33;;;;;;;9.70;100.00;101447.72;5075315;28;20025;-41
2024/03/14 00:35:32;;;;;;;4.37;3.40;;;;;;;9.70;100.00;101443.13;5075295;28;20286;-40
2024/03/14 00:37:58;;;;;;;4.78;3.85;;;;;;;9.67;100.00;101443.59;5075615;28;20016;-39
2024/03/14 00:40:23;;;;;;;4.70;3.63;;;;;;;9.68;100.00;101439.00;5076352;28;20380;-39
2024/03/14 00:42:51;;;;;;;5.15;3.63;;;;;;;9.62;100.00;101439.84;5075472;28;20066;-39
2024/03/14 00:45:19;;;;;;;4.88;3.85;;;;;;;9.53;100.00;101428.44;5075149;28;20029;-39
2024/03/14 00:47:45;;;;;;;4.70;4.28;;;;;;;9.59;100.00;101442.97;5075306;28;20021;-39
2024/03/14 00:50:11;;;;;;;6.25;3.72;;;;;;;9.58;100.00;101441.31;5075586;28;20329;-39
2024/03/14 00:52:37;;;;;;;4.97;4.22;;;;;;;9.53;100.00;101434.66;5075257;28;20043;-39
2024/03/14 00:55:04;;;;;;;5.05;4.22;;;;;;;9.53;100.00;101437.38;5075479;28;20040;-39
2024/03/14 00:57:30;;;;;;;5.32;4.72;;;;;;;9.50;100.00;101440.47;5074901;28;20028;-39
2024/03/14 00:59:55;;;;;;;4.93;4.43;;;;;;;9.48;100.00;101439.84;5074866;28;20080;-39
2024/03/14 01:02:21;;;;;;;5.23;4.43;;;;;;;9.48;100.00;101439.03;5075081;28;20028;-39
2024/03/14 01:04:49;;;;;;;5.47;4.90;;;;;;;9.49;100.00;101440.69;5074809;28;20141;-39
2024/03/14 01:07:15;;;;;;;6.88;5.68;;;;;;;9.46;100.00;101441.09;5074933;28;20270;-39
2024/03/14 01:09:40;;;;;;;5.33;4.83;;;;;;;9.45;100.00;101440.28;5074992;28;20139;-39
2024/03/14 01:12:05;;;;;;;6.80;4.63;;;;;;;9.45;100.00;101434.03;5074630;28;20317;-39
2024/03/14 01:14:31;;;;;;;5.32;4.82;;;;;;;9.46;100.00;101447.31;5074535;28;20020;-38
2024/03/14 01:16:56;;;;;;;5.38;4.93;;;;;;;9.43;100.00;101445.06;5073935;28;20027;-39
2024/03/14 01:19:21;;;;;;;7.50;4.90;;;;;;;9.36;100.00;101429.88;5074942;28;20035;-39
2024/03/14 01:21:47;;;;;;;5.73;4.67;;;;;;;9.39;100.00;101438.41;5074382;28;20259;-39
2024/03/14 01:24:13;;;;;;;6.47;5.23;;;;;;;9.37;100.00;101431.53;5074357;28;20024;-39
2024/03/14 01:26:38;;;;;;;;;;;;;;;9.47;100.00;101437.38;5074925;28;20111;-40
2024/03/14 01:29:04;;;;;;;6.23;5.20;;;;;;;9.37;100.00;101435.09;5074294;28;20050;-39
2024/03/14 01:31:29;;;;;;;5.85;5.32;;;;;;;9.32;100.00;101426.81;5074704;28;20303;-39
2024/03/14 01:33:54;;;;;;;6.75;5.25;;;;;;;9.33;100.00;101428.47;5074440;28;20052;-39
2024/03/14 01:36:23;;;;;;;6.20;5.00;;;;;;;9.29;100.00;101419.94;5074426;28;20496;-39
2024/03/14 01:38:48;;;;;;;6.70;5.95;;;;;;;9.27;100.00;101427.44;5074377;28;20039;-39
2024/03/14 01:41:21;;;;;;;6.55;5.90;;;;;;;9.25;100.00;101423.25;5073978;28;20058;-39
2024/03/14 01:43:59;;;;;;;6.30;5.70;;;;;;;9.26;100.00;101414.94;5074533;28;20028;-39
2024/03/14 01:46:28;;;;;;;6.60;5.40;;;;;;;9.28;100.00;101422.84;5074496;28;20483;-39
2024/03/14 01:48:55;;;;;;;5.97;5.25;;;;;;;9.21;100.00;101412.03;5074549;28;20021;-39
2024/03/14 01:51:20;;;;;;;7.43;5.90;;;;;;;9.20;100.00;101401.47;5074165;28;20020;-39
2024/03/14 01:53:45;;;;;;;7.55;5.80;;;;;;;9.23;100.00;101403.75;5073903;28;20103;-39
2024/03/14 01:56:14;;;;;;;6.23;5.53;;;;;;;9.23;100.00;101409.97;5074364;28;20450;-40
2024/03/14 01:58:40;;;;;;;7.03;6.00;;;;;;;9.23;100.00;101409.16;5074527;28;20024;-39
2024/03/14 02:01:05;;;;;;;6.57;5.82;;;;;;;9.23;100.00;101401.06;5073671;28;20089;-39
2024/03/14 02:03:32;;;;;;;6.37;5.77;;;;;;;9.21;100.00;101403.13;5074013;28;20032;-39
2024/03/14 02:06:12;;;;;;;8.85;6.65;;;;;;;9.18;100.00;101403.56;5074204;28;20096;-39
2024/03/14 02:08:38;;;;;;;7.03;5.80;;;;;;;9.17;100.00;101400.00;5074185;28;20044;-39
2024/03/14 02:11:04;;;;;;;5.68;5.18;;;;;;;9.20;100.00;101396.06;5073511;28;20025;-39
2024/03/14 02:13:29;;;;;;;;;;;;;;;9.23;100.00;101398.38;5074689;28;20024;-38
2024/03/14 02:15:55;;;;;;;7.57;5.87;;;;;;;9.15;100.00;101395.88;5073402;28;19908;-39
2024/03/14 02:18:20;;;;;;;8.70;5.67;;;;;;;9.12;100.00;101389.00;5074202;28;20265;-39
2024/03/14 02:20:46;;;;;;;7.35;5.50;;;;;;;9.12;100.00;101393.56;5074194;28;20052;-39
2024/03/14 02:23:12;;;;;;;7.68;5.32;;;;;;;9.07;100.00;101387.97;5073401;28;20026;-39
2024/03/14 02:25:37;;;;;;;9.60;6.40;;;;;;;9.09;100.00;101385.91;5074126;28;20024;-39
2024/03/14 02:28:03;;;;;;;5.63;5.13;;;;;;;9.07;100.00;101379.88;5073505;28;20286;-39
2024/03/14 02:30:28;;;;;;;7.43;5.40;;;;;;;9.03;100.00;101371.38;5073064;28;20023;-39
2024/03/14 02:32:54;;;;;;;7.00;5.97;;;;;;;9.03;100.00;101358.72;5074311;28;20028;-39
2024/03/14 02:35:19;;;;;;;7.60;5.97;;;;;;;9.02;100.00;101362.44;5073588;28;20281;-39
2024/03/14 02:37:44;;;;;;;8.87;6.40;;;;;;;8.99;100.00;101362.03;5073207;28;20377;-39
2024/03/14 02:40:11;;;;;;;6.77;6.17;;;;;;;8.97;100.00;101362.22;5073424;28;20472;-39
2024/03/14 02:42:37;;;;;;;7.13;6.15;;;;;;;8.97;100.00;101367.63;5073911;28;20108;-39
2024/03/14 02:45:05;;;;;;;6.35;5.68;;;;;;;8.96;100.00;101359.75;5073396;28;20068;-39
2024/03/14 02:47:31;;;;;;;6.80;6.03;;;;;;;8.94;100.00;101362.66;5073303;28;20055;-40
2024/03/14 02:49:56;;;;;;;6.00;5.50;;;;;;;8.91;100.00;101359.53;5073360;28;20442;-40
2024/03/14 02:52:22;;;;;;;6.93;6.22;;;;;;;8.90;100.00;101360.59;5073838;28;20025;-40
2024/03/14 02:54:47;;;;;;;6.80;6.07;;;;;;;8.91;100.00;101356.84;5073834;28;20602;-40
2024/03/14 02:57:13;;;;;;;6.90;6.20;;;;;;;8.84;100.00;101350.63;5073166;28;20036;-40
2024/03/14 02:59:39;;;;;;;9.00;6.68;;;;;;;8.71;100.00;101340.66;5073114;28;20031;-40
2024/03/14 03:02:10;;;;;;;7.10;6.40;;;;;;;8.83;100.00;101348.97;5073242;28;20040;-40
2024/03/14 03:04:38;;;;;;;7.75;7.05;;;;;;;8.82;100.00;101356.22;5073689;28;20028;-40
2024/03/14 03:07:05;;;;;;;7.60;6.75;;;;;;;8.82;100.00;101355.38;5072855;28;20537;-40
2024/03/14 03:09:31;;;;;;;7.47;6.78;;;;;;;8.83;100.00;101351.66;5073939;28;20056;-40
2024/03/14 03:11:59;;;;;;;7.70;6.95;;;;;;;8.82;100.00;101348.13;5073112;28;20059;-40
2024/03/14 03:14:24;;;;;;;7.75;7.05;;;;;;;8.81;100.00;101348.34;5073365;28;20090;-40
2024/03/14 03:16:50;;;;;;;8.50;7.57;;;;;;;8.75;100.00;101333.81;5073040;28;20041;-40
2024/03/14 03:19:15;;;;;;;7.90;7.17;;;;;;;8.83;100.00;101335.47;5073422;28;20247;-40
2024/03/14 03:21:41;;;;;;;8.10;7.30;;;;;;;8.83;100.00;101339.00;5073321;28;20078;-40
2024/03/14 03:24:11;;;;;;;8.70;7.80;;;;;;;8.82;100.00;101331.94;5073548;28;20092;-40
2024/03/14 03:26:37;;;;;;;8.45;7.45;;;;;;;8.81;100.00;101333.00;5073228;28;20024;-40
2024/03/14 03:29:02;;;;;;;7.65;6.65;;;;;;;8.74;100.00;101321.38;5073787;28;20039;-40
2024/03/14 03:31:28;;;;;;;9.05;8.10;;;;;;;8.77;100.00;101329.03;5072669;28;20464;-40
2024/03/14 03:33:54;;;;;;;9.30;8.13;;;;;;;8.77;100.00;101329.88;5073696;28;20353;-40
2024/03/14 03:36:22;;;;;;;7.90;7.10;;;;;;;8.74;100.00;101327.59;5072557;28;20036;-40
2024/03/14 03:38:48;;;;;;;8.25;7.45;;;;;;;8.75;100.00;101325.75;5072911;28;20025;-40
2024/03/14 03:41:13;;;;;;;10.02;7.72;;;;;;;8.74;100.00;101326.78;5074137;28;20107;-40
2024/03/14 03:43:39;;;;;;;7.65;6.85;;;;;;;8.73;100.00;101328.63;5076692;28;20487;-40
2024/03/14 03:46:07;;;;;;;7.68;6.75;;;;;;;8.74;100.00;101321.38;5076575;28;20028;-40
2024/03/14 03:48:37;;;;;;;9.55;7.03;;;;;;;8.68;100.00;101317.63;5076461;28;20024;-40
2024/03/14 03:51:04;;;;;;;9.13;7.30;;;;;;;8.66;100.00;101322.41;5077214;28;20186;-40
2024/03/14 03:53:32;;;;;;;8.52;7.72;;;;;;;8.63;100.00;101319.28;5075878;28;20391;-40
2024/03/14 03:55:58;;;;;;;7.85;7.15;;;;;;;8.62;100.00;101325.72;5076235;28;20042;-40
2024/03/14 03:58:23;;;;;;;10.90;7.60;;;;;;;8.58;100.00;101321.78;5076623;28;20112;-39
2024/03/14 04:00:52;;;;;;;6.87;6.27;;;;;;;8.56;100.00;101313.91;5076039;28;20017;-40
2024/03/14 04:03:20;;;;;;;7.50;6.70;;;;;;;8.59;100.00;101316.19;5077038;28;20048;-40
2024/03/14 04:05:45;;;;;;;7.40;6.70;;;;;;;8.52;100.00;101309.97;5076911;28;20400;-40
2024/03/14 04:08:14;;;;;;;7.38;6.68;;;;;;;8.47;100.00;101307.88;5076688;28;20020;-40
2024/03/14 04:10:39;;;;;;;6.95;6.35;;;;;;;8.47;100.00;101321.34;5076071;28;20522;-40
2024/03/14 04:13:05;;;;;;;7.47;6.78;;;;;;;8.51;100.00;101319.09;5076253;28;20032;-40
2024/03/14 04:15:30;;;;;;;6.97;6.17;;;;;;;8.47;100.00;101318.66;5076787;28;20070;-40
2024/03/14 04:17:56;;;;;;;7.22;6.18;;;;;;;8.44;100.00;101321.78;5076010;28;20029;-39
2024/03/14 04:20:27;;;;;;;6.60;6.00;;;;;;;8.42;100.00;101320.31;5075986;28;20063;-39
2024/03/14 04:22:56;;;;;;;6.80;6.20;;;;;;;8.32;100.00;101301.00;5075592;28;20536;-40
2024/03/14 04:25:21;;;;;;;9.20;6.57;;;;;;;8.38;100.00;101311.81;5076149;28;20033;-40
2024/03/14 04:27:47;;;;;;;6.63;6.03;;;;;;;8.33;100.00;101316.94;5076323;28;20024;-40
2024/03/14 04:30:17;;;;;;;6.10;5.50;;;;;;;8.38;100.00;101316.38;5076058;28;20047;-40
2024/03/14 04:32:45;;;;;;;6.28;5.55;;;;;;;8.31;100.00;101308.25;5075631;28;20458;-40
2024/03/14 04:35:11;;;;;;;6.72;5.70;;;;;;;8.30;100.00;101308.47;5075454;28;20513;-39
2024/03/14 04:37:39;;;;;;;6.78;6.10;;;;;;;8.25;100.00;101299.13;5075594;28;20104;-40
2024/03/14 04:40:14;;;;;;;6.53;5.90;;;;;;;8.22;100.00;101298.69;5076074;28;20031;-38
2024/03/14 04:42:41;;;;;;;7.13;6.05;;;;;;;8.24;100.00;101302.81;5075694;28;20372;-39
2024/03/14 04:45:13;;;;;;;;;;;;;;;8.36;100.00;101313.03;5076077;28;20037;-38
2024/03/14 04:47:39;;;;;;;5.28;4.78;;;;;;;8.19;100.00;101294.53;5075321;28;19908;-39
2024/03/14 04:50:09;;;;;;;6.53;5.25;;;;;;;8.20;100.00;101306.16;5075687;28;20020;-38
2024/03/14 04:52:39;;;;;;;5.32;4.82;;;;;;;8.14;100.00;101291.63;5074870;28;20069;-38
2024/03/14 04:55:08;;;;;;;6.35;4.97;;;;;;;8.18;100.00;101302.81;5075462;28;20051;-39
2024/03/14 04:57:33;;;;;;;6.65;4.65;;;;;;;8.13;100.00;101297.22;5075798;28;20036;-39
2024/03/14 05:00:00;;;;;;;6.25;4.75;;;;;;;8.10;100.00;101301.16;5075197;28;20453;-39
2024/03/14 05:02:25;;;;;;;5.40;4.90;;;;;;;8.09;100.00;101295.97;5075894;28;20035;-39
2024/03/14 05:04:51;;;;;;;5.25;4.75;;;;;;;8.05;100.00;101300.91;5075608;28;20032;-39
2024/03/14 05:07:16;;;;;;;5.18;4.68;;;;;;;8.05;100.00;101306.31;5075073;28;20457;-39
2024/03/14 05:09:43;;;;;;;5.55;4.93;;;;;;;8.06;100.00;101299.09;5074683;28;20346;-39
2024/03/14 05:12:08;;;;;;;5.10;4.60;;;;;;;8.02;100.00;101298.66;5074862;28;20054;-39
2024/03/14 05:14:36;;;;;;;5.30;4.80;;;;;;;8.05;100.00;101308.16;5075049;28;20464;-39
2024/03/14 05:17:01;;;;;;;5.18;4.68;;;;;;;8.02;100.00;101314.81;5074554;28;20441;-39
2024/03/14 05:19:26;;;;;;;5.20;4.70;;;;;;;7.99;100.00;101304.44;5074776;28;20025;-39
2024/03/14 05:21:52;;;;;;;5.27;4.40;;;;;;;7.94;100.00;101304.19;5074442;28;20070;-39
2024/03/14 05:24:17;;;;;;;6.37;5.03;;;;;;;7.99;100.00;101312.50;5074471;28;20425;-39
2024/03/14 05:26:43;;;;;;;5.50;4.40;;;;;;;7.97;100.00;101311.88;5074525;28;20259;-39
2024/03/14 05:29:09;;;;;;;4.70;4.30;;;;;;;7.96;100.00;101313.75;5074537;28;20024;-39
2024/03/14 05:31:37;;;;;;;6.13;4.65;;;;;;;7.86;100.00;101305.22;5074487;28;20085;-39
2024/03/14 05:34:03;;;;;;;4.60;4.20;;;;;;;7.93;100.00;101316.84;5075250;28;20035;-39
2024/03/14 05:36:28;;;;;;;5.88;4.30;;;;;;;7.93;100.00;101311.47;5074650;28;20368;-39
2024/03/14 05:38:53;;;;;;;5.20;4.40;;;;;;;7.94;100.00;101310.41;5074737;28;20025;-39
2024/03/14 05:41:19;;;;;;;5.07;4.47;;;;;;;7.93;100.00;101303.38;5074388;28;20077;-39
2024/03/14 05:43:45;;;;;;;4.77;4.33;;;;;;;7.84;100.00;101296.50;5074371;28;20262;-40
2024/03/14 05:46:11;;;;;;;4.85;4.15;;;;;;;7.90;100.00;101295.69;5074223;28;20026;-40
2024/03/14 05:48:36;;;;;;;5.18;4.10;;;;;;;7.84;100.00;101290.28;5074524;28;20025;-40
2024/03/14 05:51:02;;;;;;;4.97;4.47;;;;;;;7.91;100.00;101297.38;5073893;28;20413;-39
2024/03/14 05:53:30;;;;;;;4.90;4.40;;;;;;;7.84;100.00;101295.69;5074749;28;20024;-39
2024/03/14 05:55:56;;;;;;;5.80;4.43;;;;;;;7.83;100.00;101294.84;5073738;28;20080;-39
2024/03/14 05:58:21;;;;;;;6.85;4.55;;;;;;;7.87;100.00;101295.28;5074331;28;20475;-39
2024/03/14 06:00:47;;;;;;;5.57;4.80;;;;;;;7.85;100.00;101300.03;5073995;28;20060;-39
2024/03/14 06:03:13;;;;;;;4.90;4.18;;;;;;;7.83;100.00;101294.84;5073860;28;20082;-39
2024/03/14 06:05:38;;;;;;;;;;;;;;;7.92;100.00;101298.22;5075381;28;20036;-39
2024/03/14 06:08:04;;;;;;;4.93;4.43;;;;;;;7.85;100.00;101298.16;5073892;28;19931;-39
2024/03/14 06:10:29;;;;;;;5.15;4.65;;;;;;;7.84;100.00;101287.59;5073599;28;20036;-39
2024/03/14 06:12:54;;;;;;;5.37;4.80;;;;;;;7.85;100.00;101292.78;5073565;28;20104;-39
2024/03/14 06:15:20;;;;;;;5.00;4.50;;;;;;;7.86;100.00;101294.47;5074319;28;20062;-39
2024/03/14 06:17:50;;;;;;;7.57;4.25;;;;;;;7.84;100.00;101296.50;5073766;28;20044;-39
2024/03/14 06:20:18;;;;;;;4.70;4.20;;;;;;;7.85;100.00;101298.16;5073991;28;20020;-39
2024/03/14 06:22:44;;;;;;;4.63;4.18;;;;;;;7.82;100.00;101293.19;5073859;28;20027;-39
2024/03/14 06:25:10;;;;;;;;;;;;;;;7.97;100.00;101299.25;5074644;28;20056;-39
2024/03/14 06:27:36;;;;;;;4.70;4.07;;;;;;;7.94;100.00;101299.66;5073291;28;19995;-39
2024/03/14 06:30:04;;;;;;;4.47;3.97;;;;;;;7.95;100.00;101303.16;5074396;28;20099;-39
2024/03/14 06:32:30;;;;;;;4.32;3.80;;;;;;;7.95;100.00;101309.41;5073507;28;20077;-44
2024/03/14 06:34:55;;;;;;;4.47;3.97;;;;;;;7.96;100.00;101303.00;5073254;28;20032;-39
2024/03/14 06:37:20;;;;;;;4.40;4.00;;;;;;;7.91;100.00;101293.84;5073442;28;20266;-39
2024/03/14 06:39:46;;;;;;;4.73;4.27;;;;;;;7.96;100.00;101296.78;5073775;28;20453;-39
2024/03/14 06:42:11;;;;;;;5.13;4.23;;;;;;;8.03;100.00;101310.25;5073755;28;20077;-39
2024/03/14 06:44:37;;;;;;;4.47;4.03;;;;;;;8.00;100.00;101293.47;5074053;28;20263;-39
2024/03/14 06:47:03;;;;;;;4.55;4.15;;;;;;;8.10;100.00;101294.91;5073398;28;20032;-39
2024/03/14 06:49:28;;;;;;;4.00;3.60;;;;;;;8.17;100.00;101295.78;5073648;28;20029;-39
2024/03/14 06:51:53;;;;;;;5.03;4.30;;;;;;;8.19;100.00;101301.78;5073664;28;20430;-39
2024/03/14 06:54:19;;;;;;;4.40;4.00;;;;;;;8.19;100.00;101293.69;5073061;28;20533;-39
2024/03/14 06:56:45;;;;;;;4.63;4.10;;;;;;;8.31;100.00;101300.16;5073650;28;20032;-39
2024/03/14 06:59:12;;;;;;;4.45;4.05;;;;;;;8.28;100.00;101292.47;5072867;28;20081;-39
2024/03/14 07:01:38;;;;;;;5.53;4.30;;;;;;;8.42;100.00;101304.16;5073278;28;20059;-39
2024/03/14 07:04:04;;;;;;;5.60;4.00;;;;;;;8.51;100.00;101303.75;5072991;28;20079;-39
2024/03/14 07:06:31;;;;;;;4.50;3.97;;;;;;;8.51;100.00;101298.34;5072963;28;20077;-39
2024/03/14 07:08:57;;;;;;;4.97;4.35;;;;;;;8.64;100.00;101296.72;5073542;28;20024;-39
2024/03/14 07:11:26;;;;;;;4.35;3.95;;;;;;;8.72;100.00;101305.41;5072978;28;20020;-39
2024/03/14 07:14:00;;;;;;;4.35;3.95;;;;;;;8.79;100.00;101304.59;5072823;28;20028;-40
2024/03/14 07:16:26;;;;;;;4.20;3.60;;;;;;;8.87;100.00;101301.66;5075196;28;20457;-38
2024/03/14 07:18:54;;;;;;;5.27;4.23;;;;;;;8.95;100.00;101302.28;5077779;28;20020;-39
2024/03/14 07:21:22;;;;;;;4.28;3.88;;;;;;;9.02;100.00;101299.56;5077661;28;20269;-40
2024/03/14 07:23:48;;;;;;;5.55;3.67;;;;;;;9.10;100.00;101298.53;5077112;28;20025;-40
2024/03/14 07:26:17;;;;;;;4.25;3.28;;;;;;;9.13;100.00;101303.53;5077083;28;20036;-40
2024/03/14 07:28:43;;;;;;;5.07;3.67;;;;;;;9.25;100.00;101307.22;5076996;28;20524;-40
2024/03/14 07:31:12;;;;;;;4.45;3.65;;;;;;;9.30;100.00;101304.72;5076963;28;20347;-40
2024/03/14 07:33:37;;;;;;;3.58;3.28;;;;;;;9.36;100.00;101306.56;5077145;28;20059;-40
2024/03/14 07:36:05;;;;;;;4.20;3.47;;;;;;;9.44;100.00;101300.94;5076658;28;20044;-40
2024/03/14 07:38:30;;;;;;;3.55;3.05;;;;;;;9.44;100.00;101290.13;5076776;28;20055;-40
2024/03/14 07:40:56;;;;;;;3.65;3.30;;;;;;;9.55;100.00;101299.44;5076816;28;20051;-40
2024/03/14 07:43:21;;;;;;;3.92;3.00;;;;;;;9.61;100.00;101297.75;5077254;28;20402;-40
2024/03/14 07:45:46;;;;;;;3.10;2.80;;;;;;;9.65;100.00;101304.41;5076972;28;20027;-40
2024/03/14 07:48:14;;;;;;;3.83;3.33;;;;;;;9.69;100.00;101301.06;5076944;28;20296;-40
2024/03/14 07:50:39;;;;;;;3.70;3.38;;;;;;;9.79;100.00;101301.44;5076610;28;20044;-40
2024/03/14 07:53:07;;;;;;;4.53;3.23;;;;;;;9.84;100.00;101303.50;5109328;28;20031;-40
2024/03/14 07:55:32;;;;;;;3.33;2.95;;;;;;;9.93;100.00;101298.66;5076262;28;20299;-40
2024/03/14 07:57:58;;;;;;;4.32;3.45;;;;;;;10.01;100.00;101304.66;5076797;28;20424;-40
2024/03/14 08:00:25;;;;;;;3.20;2.90;;;;;;;10.07;100.00;101302.97;5076439;28;20089;-40
2024/03/14 08:02:56;;;;;;;3.33;2.85;;;;;;;10.14;100.00;101297.50;5076281;28;20360;-40
2024/03/14 08:05:22;;;;;;;3.75;2.92;;;;;;;10.24;100.00;101295.19;5076262;28;20029;-39
2024/03/14 08:07:48;;;;;;;4.18;2.58;;;;;;;10.28;100.00;101299.94;5076255;28;20162;-40
2024/03/14 08:10:13;;;;;;;2.53;2.13;;;;;;;10.38;100.00;101290.53;5075964;28;20028;-40
2024/03/14 08:12:38;;;;;;;4.90;2.63;;;;;;;10.46;100.00;101293.81;5074696;28;20025;-40
2024/03/14 08:15:16;;;;;;;2.77;2.57;;;;;;;10.54;100.00;101290.84;5076410;28;20735;-39
2024/03/14 08:17:44;;;;;;;3.88;2.40;;;;;;;10.65;100.00;101288.47;5076090;28;20462;-40
2024/03/14 08:20:15;;;;;;;4.18;2.33;;;;;;;10.72;100.00;101294.63;5076119;28;20028;-40
2024/03/14 08:22:43;;;;;;;2.47;2.03;;;;;;;10.80;100.00;101291.66;5076293;28;20016;-40
2024/03/14 08:25:15;;;;;;;3.70;2.58;;;;;;;10.86;100.00;101300.75;5076307;28;20031;-40
2024/03/14 08:27:42;;;;;;;3.00;2.30;;;;;;;10.94;100.00;101295.09;5075146;28;20012;-40
2024/03/14 08:30:10;;;;;;;4.10;2.53;;;;;;;10.90;100.00;101286.56;5075868;28;20021;-40
2024/03/14 08:32:36;;;;;;;2.20;2.00;;;;;;;10.96;100.00;101295.69;5076300;28;20023;-40
2024/03/14 08:35:05;;;;;;;2.17;1.98;;;;;;;10.97;100.00;101291.91;5075415;28;20024;-40
2024/03/14 08:37:30;;;;;;;2.42;1.90;;;;;;;10.99;100.00;101290.66;5075388;28;20052;-40
2024/03/14 08:39:55;;;;;;;2.53;1.98;;;;;;;10.98;100.00;101278.19;5075767;28;20051;-40
2024/03/14 08:42:31;;;;;;;2.83;1.97;;;;;;;11.10;100.00;101294.50;5076183;28;20099;-40
2024/03/14 08:45:01;;;;;;;4.55;2.20;;;;;;;11.11;100.00;101293.44;5075287;28;20258;-40
2024/03/14 08:47:27;;;;;;;2.40;1.90;;;;;;;11.15;100.00;101291.94;5076374;28;20045;-40
2024/03/14 08:49:52;;;;;;;2.10;1.90;;;;;;;11.09;100.00;101284.72;5075546;28;20506;-39
2024/03/14 08:52:21;;;;;;;2.47;2.28;;;;;;;11.11;100.00;101281.78;5075414;28;20032;-40
2024/03/14 08:54:47;;;;;;;2.90;1.90;;;;;;;11.18;100.00;101282.56;5075889;28;20229;-40
2024/03/14 08:57:18;;;;;;;2.58;2.05;;;;;;;11.33;100.00;101286.56;5075357;28;20484;-40
2024/03/14 08:59:43;;;;;;;3.03;2.15;;;;;;;11.52;100.00;101281.97;5075618;28;20078;-40
2024/03/14 09:02:09;;;;;;;2.40;1.87;;;;;;;11.59;100.00;101285.41;5075380;28;20103;-39
2024/03/14 09:04:35;;;;;;;2.63;1.52;;;;;;;11.54;100.00;101274.44;5075789;28;20028;-39
2024/03/14 09:07:00;;;;;;;;;;;;;;;11.73;100.00;101279.84;5075362;28;20372;-39
2024/03/14 09:09:34;;;;;;;1.95;1.73;;;;;;;11.81;100.00;101284.97;5074837;28;19915;-39
2024/03/14 09:12:09;;;;;;;2.33;1.55;;;;;;;11.79;100.00;101268.09;5075376;28;20028;-39
2024/03/14 09:14:36;;;;;;;2.05;1.65;;;;;;;11.81;100.00;101282.25;5075518;28;20117;-39
2024/03/14 09:17:04;;;;;;;3.70;1.60;;;;;;;11.81;100.00;101279.53;5075834;28;20043;-39
2024/03/14 09:19:31;;;;;;;1.95;1.60;;;;;;;11.91;100.00;101287.97;5075772;28;20029;-39
2024/03/14 09:21:57;;;;;;;4.45;2.10;;;;;;;11.94;100.00;101283.97;5074896;28;20096;-39
2024/03/14 09:24:22;;;;;;;2.95;1.90;;;;;;;12.08;100.00;101277.31;5075476;28;20071;-39
2024/03/14 09:26:48;;;;;;;1.70;1.60;;;;;;;12.12;100.00;101275.78;5075358;28;20052;-39
2024/03/14 09:29:14;;;;;;;2.20;1.75;;;;;;;12.08;100.00;101274.59;5074808;28;20249;-39
2024/03/14 09:31:43;;;;;;;2.63;2.00;;;;;;;11.97;100.00;101278.09;5074426;28;20157;-39
2024/03/14 09:34:09;;;;;;;3.38;1.85;;;;;;;11.92;100.00;101283.38;5074310;28;20024;-39
2024/03/14 09:36:35;;;;;;;2.38;1.70;;;;;;;12.00;100.00;101275.72;5074617;28;20029;-39
2024/03/14 09:39:01;;;;;;;;;;;;;;;12.20;100.00;101271.91;5074148;28;20020;-39
2024/03/14 09:41:26;;;;;;;2.50;1.90;;;;;;;12.19;100.00;101264.84;5074142;28;19995;-39
2024/03/14 09:43:51;;;;;;;2.22;1.50;;;;;;;12.33;100.00;101263.59;5074411;28;20258;-39
2024/03/14 09:46:24;;;;;;;1.92;1.48;;;;;;;12.49;100.00;101273.78;5074075;28;20028;-39
2024/03/14 09:48:51;;;;;;;2.67;1.85;;;;;;;12.60;100.00;101267.53;5075128;28;20020;-39
2024/03/14 09:51:17;;;;;;;3.13;1.70;;;;;;;12.64;100.00;101259.75;5074238;28;20032;-39
2024/03/14 09:53:45;;;;;;;1.90;1.42;;;;;;;12.79;100.00;101267.44;5074188;28;20063;-39
2024/03/14 09:56:11;;;;;;;1.85;1.40;;;;;;;12.88;100.00;101256.00;5073985;28;20071;-39
2024/03/14 09:58:38;;;;;;;3.73;1.60;;;;;;;12.94;100.00;101251.50;5074147;28;20064;-39
2024/03/14 10:01:09;;;;;;;1.60;1.25;;;;;;;13.02;100.00;101262.00;5073752;28;20471;-39
2024/03/14 10:03:38;;;;;;;1.65;1.45;;;;;;;13.05;100.00;101244.41;5074376;28;20104;-39
2024/03/14 10:06:15;;;;;;;1.88;1.60;;;;;;;13.18;100.00;101254.22;5073992;28;20024;-40
2024/03/14 10:08:50;;;;;;;2.08;1.27;;;;;;;13.27;100.00;101248.19;5074253;28;20031;-39
2024/03/14 10:11:18;;;;;;;3.20;1.85;;;;;;;13.25;100.00;101255.75;5073981;28;20029;-39
2024/03/14 10:13:46;;;;;;;1.50;1.35;;;;;;;13.15;100.00;101253.59;5074381;28;20345;-39
2024/03/14 10:16:12;;;;;;;2.58;1.58;;;;;;;13.07;100.00;101248.53;5073806;28;20031;-40
2024/03/14 10:18:39;;;;;;;2.28;1.50;;;;;;;13.06;100.00;101251.50;5073920;28;20021;-40
2024/03/14 10:21:05;;;;;;;3.55;1.38;;;;;;;13.09;100.00;101246.41;5073743;28;20024;-40
2024/03/14 10:23:32;;;;;;;1.83;1.25;;;;;;;13.21;100.00;101251.81;5073741;28;20020;-39
2024/03/14 10:25:57;;;;;;;2.35;1.33;;;;;;;13.34;100.00;101238.03;5072269;28;20032;-39
2024/03/14 10:28:28;;;;;;;1.70;1.25;;;;;;;13.58;100.00;101229.81;5074553;28;20028;-39
2024/03/14 10:30:57;;;;;;;2.90;1.50;;;;;;;13.71;100.00;101231.41;5073729;28;20032;-39
2024/03/14 10:33:26;;;;;;;1.88;1.42;;;;;;;13.88;100.00;101233.13;5073685;28;20111;-39
2024/03/14 10:35:59;;;;;;;2.20;1.67;;;;;;;14.00;100.00;101229.50;5073196;28;20406;-40
2024/03/14 10:38:26;;;;;;;3.42;1.58;;;;;;;14.06;100.00;101237.53;5073836;28;20024;-39
2024/03/14 10:40:57;;;;;;;1.75;1.20;;;;;;;14.13;100.00;101227.31;5073860;28;20024;-39
2024/03/14 10:43:31;;;;;;;2.22;1.50;;;;;;;14.12;100.00;101222.94;5073566;28;20109;-39
2024/03/14 10:45:57;;;;;;;2.05;1.13;;;;;;;14.06;100.00;101210.34;5073735;28;20063;-39
2024/03/14 10:48:23;;;;;;;2.17;1.25;;;;;;;14.22;100.00;101213.31;5073448;28;20457;-39
2024/03/14 10:50:56;;;;;;;1.70;1.27;;;;;;;14.26;100.00;101214.47;5073800;28;20052;-40
2024/03/14 10:53:23;;;;;;;2.25;1.20;;;;;;;14.31;100.00;101214.56;5074005;28;20057;-40
2024/03/14 10:55:55;;;;;;;2.30;1.30;;;;;;;14.33;100.00;101196.91;5072928;28;20488;-39
2024/03/14 10:58:23;;;;;;;2.97;1.20;;;;;;;14.46;100.00;101206.63;5074142;28;20107;-39
2024/03/14 11:00:51;;;;;;;2.80;1.13;;;;;;;14.55;100.00;101205.19;5073017;28;20108;-40
2024/03/14 11:03:17;;;;;;;4.78;0.98;;;;;;;14.54;100.00;101192.66;5073652;28;20062;-39
2024/03/14 11:05:52;;;;;;;1.52;1.10;;;;;;;14.61;100.00;101174.25;5073292;28;20439;-40
2024/03/14 11:08:22;;;;;;;1.48;1.00;;;;;;;14.82;100.00;101193.59;5073609;28;20017;-40
2024/03/14 11:10:50;;;;;;;1.63;1.02;;;;;;;14.88;100.00;101189.84;5073809;28;20464;-40
2024/03/14 11:13:17;;;;;;;4.07;1.10;;;;;;;14.94;100.00;101180.72;5072968;28;20062;-40
2024/03/14 11:15:43;;;;;;;1.50;1.30;;;;;;;14.96;100.00;101177.72;5073729;28;20097;-39
2024/03/14 11:18:16;;;;;;;4.93;1.02;;;;;;;15.11;100.00;101173.28;5073399;28;20441;-40
2024/03/14 11:20:49;;;;;;;1.70;1.00;;;;;;;15.25;100.00;101172.91;5073427;28;20029;-40
2024/03/14 11:23:19;;;;;;;1.65;1.10;;;;;;;15.21;100.00;101175.31;5073735;28;20067;-40